createdAt,value
2022-09-26T00:00:13.081Z,977.27
2022-09-26T00:01:13.076Z,977.24
2022-09-26T00:02:13.072Z,977.25
2022-09-26T00:03:13.024Z,977.20
2022-09-26T00:04:13.031Z,977.22
2022-09-26T00:05:13.033Z,977.23
2022-09-26T00:06:13.076Z,977.25
2022-09-26T00:07:12.960Z,977.18
2022-09-26T00:08:12.961Z,977.23
2022-09-26T00:09:13.036Z,977.22
2022-09-26T00:10:12.939Z,977.25
2022-09-26T00:11:12.939Z,977.21
2022-09-26T00:12:12.933Z,977.14
2022-09-26T00:13:12.975Z,977.15
2022-09-26T00:14:12.919Z,977.12
2022-09-26T00:15:12.880Z,977.10
2022-09-26T00:16:12.943Z,977.08
2022-09-26T00:17:12.915Z,977.09
2022-09-26T00:18:12.847Z,977.08
2022-09-26T00:19:12.971Z,977.09
2022-09-26T00:20:12.832Z,977.11
2022-09-26T00:21:12.866Z,977.08
2022-09-26T00:22:12.884Z,977.03
2022-09-26T00:23:12.778Z,976.98
2022-09-26T00:24:13.280Z,976.98
2022-09-26T00:25:13.248Z,976.97
2022-09-26T00:26:12.814Z,976.91
2022-09-26T00:27:12.752Z,976.94
2022-09-26T00:28:12.873Z,976.94
2022-09-26T00:29:12.827Z,976.91
2022-09-26T00:30:12.717Z,976.95
2022-09-26T00:31:12.735Z,976.92
2022-09-26T00:32:12.696Z,976.97
2022-09-26T00:33:12.666Z,976.93
2022-09-26T00:34:12.687Z,976.98
2022-09-26T00:35:12.659Z,976.98
2022-09-26T00:36:12.656Z,976.92
2022-09-26T00:37:12.626Z,976.90
2022-09-26T00:38:12.631Z,976.93
2022-09-26T00:39:12.679Z,976.90
2022-09-26T00:40:12.662Z,976.96
2022-09-26T00:41:12.587Z,976.95
2022-09-26T00:42:12.577Z,976.89
2022-09-26T00:43:12.567Z,976.90
2022-09-26T00:44:13.417Z,976.89
2022-09-26T00:45:12.536Z,976.84
2022-09-26T00:46:12.590Z,976.78
2022-09-26T00:47:12.516Z,976.80
2022-09-26T00:48:12.511Z,976.77
2022-09-26T00:49:12.524Z,976.79
2022-09-26T00:50:12.496Z,976.74
2022-09-26T00:51:12.465Z,976.77
2022-09-26T00:52:12.491Z,976.77
2022-09-26T00:53:12.453Z,976.76
2022-09-26T00:54:12.448Z,976.71
2022-09-26T00:55:12.424Z,976.69
2022-09-26T00:56:12.444Z,976.72
2022-09-26T00:57:12.395Z,976.67
2022-09-26T00:58:12.406Z,976.63
2022-09-26T00:59:12.454Z,976.56
2022-09-26T01:00:12.398Z,976.54
2022-09-26T01:01:12.430Z,976.51
2022-09-26T01:02:12.418Z,976.52
2022-09-26T01:03:12.335Z,976.53
2022-09-26T01:04:13.240Z,976.49
2022-09-26T01:05:12.396Z,976.52
2022-09-26T01:06:12.322Z,976.47
2022-09-26T01:07:12.294Z,976.44
2022-09-26T01:08:12.294Z,976.44
2022-09-26T01:09:12.341Z,976.39
2022-09-26T01:10:12.377Z,976.32
2022-09-26T01:11:16.650Z,976.26
2022-09-26T01:12:12.254Z,976.26
2022-09-26T01:13:12.230Z,976.25
2022-09-26T01:14:12.228Z,976.23
2022-09-26T01:15:12.203Z,976.23
2022-09-26T01:16:12.246Z,976.20
2022-09-26T01:17:12.191Z,976.17
2022-09-26T01:18:12.191Z,976.15
2022-09-26T01:19:12.191Z,976.18
2022-09-26T01:20:12.162Z,976.13
2022-09-26T01:21:12.166Z,976.15
2022-09-26T01:22:12.186Z,976.18
2022-09-26T01:23:12.112Z,976.13
2022-09-26T01:24:12.111Z,976.18
2022-09-26T01:25:12.126Z,976.18
2022-09-26T01:26:12.154Z,976.16
2022-09-26T01:27:12.071Z,976.11
2022-09-26T01:28:12.080Z,976.08
2022-09-26T01:29:12.148Z,976.13
2022-09-26T01:30:12.052Z,976.08
2022-09-26T01:31:12.124Z,976.09
2022-09-26T01:32:12.032Z,976.09
2022-09-26T01:33:12.021Z,976.09
2022-09-26T01:34:12.011Z,976.06
2022-09-26T01:35:11.982Z,976.12
2022-09-26T01:36:12.151Z,976.14
2022-09-26T01:37:12.001Z,976.09
2022-09-26T01:38:11.963Z,976.14
2022-09-26T01:39:12.010Z,976.12
2022-09-26T01:40:11.979Z,976.11
2022-09-26T01:41:11.911Z,976.10
2022-09-26T01:42:11.930Z,976.11
2022-09-26T01:43:11.914Z,976.12
2022-09-26T01:44:11.901Z,976.10
2022-09-26T01:45:12.621Z,976.08
2022-09-26T01:46:11.959Z,976.10
2022-09-26T01:47:11.888Z,976.14
2022-09-26T01:48:11.839Z,976.09
2022-09-26T01:49:11.898Z,976.08
2022-09-26T01:50:11.810Z,976.11
2022-09-26T01:51:11.848Z,976.14
2022-09-26T01:52:11.790Z,976.10
2022-09-26T01:53:11.801Z,976.06
2022-09-26T01:54:11.780Z,976.10
2022-09-26T01:55:11.770Z,976.09
2022-09-26T01:56:11.751Z,976.08
2022-09-26T01:57:11.811Z,976.06
2022-09-26T01:58:11.755Z,976.03
2022-09-26T01:59:11.776Z,976.02
2022-09-26T02:00:11.719Z,975.98
2022-09-26T02:01:11.770Z,975.97
2022-09-26T02:02:11.745Z,975.92
2022-09-26T02:03:11.687Z,975.91
2022-09-26T02:04:11.941Z,975.89
2022-09-26T02:05:12.491Z,975.89
2022-09-26T02:06:12.406Z,975.83
2022-09-26T02:07:11.651Z,975.80
2022-09-26T02:08:11.617Z,975.80
2022-09-26T02:09:11.666Z,975.82
2022-09-26T02:10:11.610Z,975.78
2022-09-26T02:11:11.609Z,975.79
2022-09-26T02:12:11.568Z,975.75
2022-09-26T02:13:11.578Z,975.75
2022-09-26T02:14:11.548Z,975.71
2022-09-26T02:15:11.579Z,975.73
2022-09-26T02:16:11.578Z,975.73
2022-09-26T02:17:11.536Z,975.77
2022-09-26T02:18:11.538Z,975.76
2022-09-26T02:19:11.574Z,975.76
2022-09-26T02:20:11.486Z,975.77
2022-09-26T02:21:11.489Z,975.78
2022-09-26T02:22:11.489Z,975.72
2022-09-26T02:23:12.040Z,975.73
2022-09-26T02:24:11.449Z,975.70
2022-09-26T02:25:11.448Z,975.66
2022-09-26T02:26:12.157Z,975.67
2022-09-26T02:27:12.171Z,975.61
2022-09-26T02:28:11.398Z,975.63
2022-09-26T02:29:11.446Z,975.57
2022-09-26T02:30:11.376Z,975.57
2022-09-26T02:31:11.420Z,975.51
2022-09-26T02:32:11.393Z,975.48
2022-09-26T02:33:11.356Z,975.47
2022-09-26T02:34:11.339Z,975.44
2022-09-26T02:35:11.343Z,975.43
2022-09-26T02:36:11.306Z,975.41
2022-09-26T02:37:11.313Z,975.35
2022-09-26T02:38:11.284Z,975.31
2022-09-26T02:39:11.303Z,975.32
2022-09-26T02:40:11.322Z,975.31
2022-09-26T02:41:11.267Z,975.31
2022-09-26T02:42:11.246Z,975.28
2022-09-26T02:43:11.236Z,975.29
2022-09-26T02:44:11.215Z,975.26
2022-09-26T02:45:11.245Z,975.24
2022-09-26T02:46:11.268Z,975.25
2022-09-26T02:47:11.237Z,975.23
2022-09-26T02:48:11.184Z,975.19
2022-09-26T02:49:11.183Z,975.15
2022-09-26T02:50:11.155Z,975.15
2022-09-26T02:51:11.159Z,975.14
2022-09-26T02:52:11.136Z,975.13
2022-09-26T02:53:11.143Z,975.13
2022-09-26T02:54:11.104Z,975.10
2022-09-26T02:55:11.193Z,975.10
2022-09-26T02:56:11.094Z,975.10
2022-09-26T02:57:11.093Z,975.05
2022-09-26T02:58:11.075Z,975.03
2022-09-26T02:59:11.075Z,975.03
2022-09-26T03:00:11.034Z,975.04
2022-09-26T03:01:11.110Z,975.01
2022-09-26T03:02:11.023Z,974.97
2022-09-26T03:03:11.043Z,974.97
2022-09-26T03:04:11.013Z,974.95
2022-09-26T03:05:11.073Z,974.94
2022-09-26T03:06:10.973Z,974.85
2022-09-26T03:07:10.993Z,974.88
2022-09-26T03:08:11.813Z,974.90
2022-09-26T03:09:10.995Z,974.88
2022-09-26T03:10:10.936Z,974.88
2022-09-26T03:11:10.948Z,974.84
2022-09-26T03:12:10.903Z,974.86
2022-09-26T03:13:10.914Z,974.88
2022-09-26T03:14:10.893Z,974.88
2022-09-26T03:15:10.894Z,974.86
2022-09-26T03:16:10.918Z,974.82
2022-09-26T03:17:10.872Z,974.85
2022-09-26T03:18:10.843Z,974.84
2022-09-26T03:19:10.846Z,974.82
2022-09-26T03:20:10.822Z,974.79
2022-09-26T03:21:10.833Z,974.83
2022-09-26T03:22:10.791Z,974.79
2022-09-26T03:23:10.981Z,974.76
2022-09-26T03:24:10.772Z,974.76
2022-09-26T03:25:10.802Z,974.72
2022-09-26T03:26:10.751Z,974.72
2022-09-26T03:27:10.802Z,974.68
2022-09-26T03:28:11.696Z,974.70
2022-09-26T03:29:11.622Z,974.61
2022-09-26T03:30:10.720Z,974.61
2022-09-26T03:31:10.712Z,974.56
2022-09-26T03:32:10.779Z,974.58
2022-09-26T03:33:10.682Z,974.54
2022-09-26T03:34:10.691Z,974.52
2022-09-26T03:35:10.673Z,974.52
2022-09-26T03:36:10.642Z,974.52
2022-09-26T03:37:10.639Z,974.52
2022-09-26T03:38:14.248Z,974.53
2022-09-26T03:39:10.622Z,974.47
2022-09-26T03:40:10.621Z,974.54
2022-09-26T03:41:10.611Z,974.47
2022-09-26T03:42:10.570Z,974.44
2022-09-26T03:43:10.581Z,974.45
2022-09-26T03:44:10.550Z,974.45
2022-09-26T03:45:10.558Z,974.42
2022-09-26T03:46:10.591Z,974.37
2022-09-26T03:47:10.533Z,974.40
2022-09-26T03:48:10.520Z,974.39
2022-09-26T03:49:11.339Z,974.37
2022-09-26T03:50:10.490Z,974.34
2022-09-26T03:51:10.942Z,974.32
2022-09-26T03:52:10.470Z,974.40
2022-09-26T03:53:10.470Z,974.32
2022-09-26T03:54:10.439Z,974.25
2022-09-26T03:55:10.449Z,974.21
2022-09-26T03:56:10.611Z,974.20
2022-09-26T03:57:10.440Z,974.18
2022-09-26T03:58:10.399Z,974.23
2022-09-26T03:59:10.400Z,974.14
2022-09-26T04:00:10.415Z,974.10
2022-09-26T04:01:10.495Z,974.07
2022-09-26T04:02:10.389Z,974.08
2022-09-26T04:03:10.375Z,974.05
2022-09-26T04:04:10.330Z,974.05
2022-09-26T04:05:10.331Z,973.98
2022-09-26T04:06:10.308Z,974.01
2022-09-26T04:07:10.306Z,973.95
2022-09-26T04:08:11.178Z,973.94
2022-09-26T04:09:15.878Z,973.94
2022-09-26T04:10:11.269Z,973.94
2022-09-26T04:11:10.278Z,973.93
2022-09-26T04:12:10.227Z,973.88
2022-09-26T04:13:10.239Z,973.88
2022-09-26T04:14:10.259Z,973.84
2022-09-26T04:15:10.220Z,973.83
2022-09-26T04:16:10.212Z,973.89
2022-09-26T04:17:10.187Z,973.84
2022-09-26T04:18:10.158Z,973.78
2022-09-26T04:19:10.173Z,973.80
2022-09-26T04:20:10.188Z,973.77
2022-09-26T04:21:10.303Z,973.75
2022-09-26T04:22:10.119Z,973.72
2022-09-26T04:23:10.125Z,973.71
2022-09-26T04:24:10.097Z,973.71
2022-09-26T04:25:10.105Z,973.66
2022-09-26T04:26:10.067Z,973.68
2022-09-26T04:27:10.106Z,973.63
2022-09-26T04:28:10.046Z,973.61
2022-09-26T04:29:10.171Z,973.62
2022-09-26T04:30:10.170Z,973.59
2022-09-26T04:31:10.065Z,973.52
2022-09-26T04:32:10.005Z,973.56
2022-09-26T04:33:10.015Z,973.51
2022-09-26T04:34:09.966Z,973.53
2022-09-26T04:35:09.995Z,973.48
2022-09-26T04:36:09.966Z,973.44
2022-09-26T04:37:09.966Z,973.44
2022-09-26T04:38:09.936Z,973.40
2022-09-26T04:39:09.936Z,973.37
2022-09-26T04:40:09.906Z,973.34
2022-09-26T04:41:09.963Z,973.35
2022-09-26T04:42:10.062Z,973.37
2022-09-26T04:43:09.905Z,973.26
2022-09-26T04:44:09.876Z,973.31
2022-09-26T04:45:09.876Z,973.29
2022-09-26T04:46:09.905Z,973.30
2022-09-26T04:47:09.853Z,973.33
2022-09-26T04:48:09.815Z,973.27
2022-09-26T04:49:10.572Z,973.25
2022-09-26T04:50:09.830Z,973.20
2022-09-26T04:51:10.224Z,973.23
2022-09-26T04:52:09.790Z,973.24
2022-09-26T04:53:10.233Z,973.21
2022-09-26T04:54:09.745Z,973.23
2022-09-26T04:55:09.753Z,973.25
2022-09-26T04:56:09.725Z,973.20
2022-09-26T04:57:10.074Z,973.18
2022-09-26T04:58:09.695Z,973.17
2022-09-26T04:59:09.732Z,973.17
2022-09-26T05:00:09.677Z,973.14
2022-09-26T05:01:09.734Z,973.13
2022-09-26T05:02:09.742Z,973.12
2022-09-26T05:03:09.664Z,973.10
2022-09-26T05:04:09.634Z,973.09
2022-09-26T05:05:09.704Z,973.07
2022-09-26T05:06:09.734Z,973.08
2022-09-26T05:07:09.611Z,973.04
2022-09-26T05:08:09.637Z,973.04
2022-09-26T05:09:09.687Z,973.03
2022-09-26T05:10:10.392Z,973.01
2022-09-26T05:11:09.595Z,973.02
2022-09-26T05:12:09.773Z,973.02
2022-09-26T05:13:09.547Z,973.04
2022-09-26T05:14:09.534Z,973.02
2022-09-26T05:15:09.550Z,973.01
2022-09-26T05:16:09.519Z,972.98
2022-09-26T05:17:09.505Z,973.02
2022-09-26T05:18:09.475Z,972.97
2022-09-26T05:19:09.545Z,972.97
2022-09-26T05:20:09.452Z,972.99
2022-09-26T05:21:09.908Z,972.94
2022-09-26T05:22:09.426Z,972.92
2022-09-26T05:23:10.382Z,972.89
2022-09-26T05:24:09.420Z,972.90
2022-09-26T05:25:09.413Z,972.88
2022-09-26T05:26:09.394Z,972.91
2022-09-26T05:27:09.392Z,972.90
2022-09-26T05:28:09.361Z,972.91
2022-09-26T05:29:09.559Z,972.91
2022-09-26T05:30:09.342Z,972.91
2022-09-26T05:31:10.173Z,972.90
2022-09-26T05:32:09.799Z,972.87
2022-09-26T05:33:09.320Z,972.89
2022-09-26T05:34:09.291Z,972.88
2022-09-26T05:35:09.298Z,972.91
2022-09-26T05:36:09.274Z,972.92
2022-09-26T05:37:09.299Z,972.88
2022-09-26T05:38:09.252Z,972.90
2022-09-26T05:39:09.266Z,972.86
2022-09-26T05:40:09.220Z,972.85
2022-09-26T05:41:09.240Z,972.85
2022-09-26T05:42:09.211Z,972.86
2022-09-26T05:43:09.201Z,972.84
2022-09-26T05:44:09.188Z,972.81
2022-09-26T05:45:09.187Z,972.83
2022-09-26T05:46:09.150Z,972.73
2022-09-26T05:47:09.314Z,972.77
2022-09-26T05:48:09.135Z,972.75
2022-09-26T05:49:09.168Z,972.77
2022-09-26T05:50:09.121Z,972.74
2022-09-26T05:51:10.027Z,972.81
2022-09-26T05:52:09.095Z,972.80
2022-09-26T05:53:09.090Z,972.78
2022-09-26T05:54:09.069Z,972.76
2022-09-26T05:55:09.102Z,972.77
2022-09-26T05:56:09.039Z,972.74
2022-09-26T05:57:09.040Z,972.78
2022-09-26T05:58:09.010Z,972.76
2022-09-26T05:59:09.068Z,972.73
2022-09-26T06:00:09.001Z,972.70
2022-09-26T06:01:09.013Z,972.69
2022-09-26T06:02:09.015Z,972.66
2022-09-26T06:03:08.969Z,972.66
2022-09-26T06:04:08.967Z,972.66
2022-09-26T06:05:08.929Z,972.69
2022-09-26T06:06:08.957Z,972.63
2022-09-26T06:07:08.909Z,972.66
2022-09-26T06:08:08.908Z,972.63
2022-09-26T06:09:08.893Z,972.61
2022-09-26T06:10:09.720Z,972.55
2022-09-26T06:11:09.618Z,972.58
2022-09-26T06:12:09.576Z,972.59
2022-09-26T06:13:08.847Z,972.54
2022-09-26T06:14:09.578Z,972.57
2022-09-26T06:15:08.818Z,972.56
2022-09-26T06:16:08.861Z,972.56
2022-09-26T06:17:08.788Z,972.53
2022-09-26T06:18:08.849Z,972.57
2022-09-26T06:19:08.828Z,972.59
2022-09-26T06:20:08.788Z,972.52
2022-09-26T06:21:09.693Z,972.52
2022-09-26T06:22:08.747Z,972.49
2022-09-26T06:23:08.727Z,972.53
2022-09-26T06:24:08.730Z,972.52
2022-09-26T06:25:08.728Z,972.46
2022-09-26T06:26:08.706Z,972.48
2022-09-26T06:27:08.678Z,972.44
2022-09-26T06:28:08.675Z,972.44
2022-09-26T06:29:08.746Z,972.48
2022-09-26T06:30:08.658Z,972.47
2022-09-26T06:31:08.667Z,972.50
2022-09-26T06:32:08.938Z,972.42
2022-09-26T06:33:08.617Z,972.39
2022-09-26T06:34:08.619Z,972.41
2022-09-26T06:35:08.587Z,972.40
2022-09-26T06:36:08.698Z,972.41
2022-09-26T06:37:08.567Z,972.40
2022-09-26T06:38:08.577Z,972.41
2022-09-26T06:39:08.563Z,972.41
2022-09-26T06:40:08.547Z,972.39
2022-09-26T06:41:08.517Z,972.33
2022-09-26T06:42:08.537Z,972.34
2022-09-26T06:43:08.497Z,972.30
2022-09-26T06:44:08.500Z,972.29
2022-09-26T06:45:08.597Z,972.32
2022-09-26T06:46:08.807Z,972.25
2022-09-26T06:47:08.490Z,972.26
2022-09-26T06:48:09.403Z,972.22
2022-09-26T06:49:08.449Z,972.23
2022-09-26T06:50:08.441Z,972.19
2022-09-26T06:51:08.426Z,972.24
2022-09-26T06:52:09.257Z,972.23
2022-09-26T06:53:09.175Z,972.16
2022-09-26T06:54:08.395Z,972.18
2022-09-26T06:55:08.377Z,972.18
2022-09-26T06:56:08.389Z,972.19
2022-09-26T06:57:12.835Z,972.20
2022-09-26T06:58:09.347Z,972.13
2022-09-26T06:59:08.317Z,972.16
2022-09-26T07:00:08.386Z,972.11
2022-09-26T07:01:08.420Z,972.10
2022-09-26T07:02:08.492Z,972.15
2022-09-26T07:03:08.341Z,972.07
2022-09-26T07:04:08.317Z,972.08
2022-09-26T07:05:08.266Z,972.05
2022-09-26T07:06:08.246Z,972.09
2022-09-26T07:07:08.246Z,972.07
2022-09-26T07:08:08.229Z,972.02
2022-09-26T07:09:12.579Z,972.01
2022-09-26T07:10:08.205Z,971.95
2022-09-26T07:11:31.280Z,971.98
2022-09-26T07:12:14.567Z,971.94
2022-09-26T07:13:09.176Z,971.93
2022-09-26T07:14:08.166Z,971.92
2022-09-26T07:15:08.146Z,971.92
2022-09-26T07:16:08.221Z,971.83
2022-09-26T07:17:08.220Z,971.89
2022-09-26T07:18:08.129Z,971.85
2022-09-26T07:19:08.186Z,971.88
2022-09-26T07:20:08.103Z,971.84
2022-09-26T07:21:08.074Z,971.84
2022-09-26T07:22:08.079Z,971.82
2022-09-26T07:23:08.045Z,971.76
2022-09-26T07:24:08.064Z,971.77
2022-09-26T07:25:08.015Z,971.77
2022-09-26T07:26:08.046Z,971.76
2022-09-26T07:27:08.005Z,971.73
2022-09-26T07:28:08.025Z,971.76
2022-09-26T07:29:07.974Z,971.71
2022-09-26T07:30:07.985Z,971.66
2022-09-26T07:31:08.086Z,971.66
2022-09-26T07:32:07.952Z,971.62
2022-09-26T07:33:08.166Z,971.63
2022-09-26T07:34:08.235Z,971.63
2022-09-26T07:35:07.917Z,971.60
2022-09-26T07:36:07.914Z,971.58
2022-09-26T07:37:07.891Z,971.59
2022-09-26T07:38:07.951Z,971.61
2022-09-26T07:39:07.864Z,971.53
2022-09-26T07:40:07.863Z,971.55
2022-09-26T07:41:07.846Z,971.54
2022-09-26T07:42:07.835Z,971.53
2022-09-26T07:43:19.610Z,971.53
2022-09-26T07:45:24.760Z,971.55
2022-09-26T07:46:08.858Z,971.54
2022-09-26T07:47:07.833Z,971.48
2022-09-26T07:48:07.790Z,971.45
2022-09-26T07:49:07.754Z,971.49
2022-09-26T07:50:07.753Z,971.48
2022-09-26T07:51:09.407Z,971.42
2022-09-26T07:52:07.723Z,971.45
2022-09-26T07:53:07.725Z,971.42
2022-09-26T07:54:08.432Z,971.41
2022-09-26T07:55:07.696Z,971.37
2022-09-26T07:56:07.695Z,971.39
2022-09-26T07:57:07.654Z,971.38
2022-09-26T07:58:07.661Z,971.38
2022-09-26T07:59:07.633Z,971.37
2022-09-26T08:00:07.635Z,971.40
2022-09-26T08:01:07.634Z,971.28
2022-09-26T08:02:07.776Z,971.35
2022-09-26T08:03:07.650Z,971.34
2022-09-26T08:04:07.592Z,971.35
2022-09-26T08:05:07.563Z,971.32
2022-09-26T08:06:07.577Z,971.29
2022-09-26T08:07:07.552Z,971.27
2022-09-26T08:08:07.563Z,971.22
2022-09-26T08:09:07.533Z,971.26
2022-09-26T08:10:07.531Z,971.22
2022-09-26T08:11:07.502Z,971.24
2022-09-26T08:12:07.514Z,971.23
2022-09-26T08:13:08.399Z,971.22
2022-09-26T08:14:08.315Z,971.11
2022-09-26T08:15:07.655Z,971.15
2022-09-26T08:16:08.414Z,971.14
2022-09-26T08:17:11.912Z,971.12
2022-09-26T08:18:09.197Z,971.09
2022-09-26T08:19:07.468Z,971.07
2022-09-26T08:20:07.423Z,971.12
2022-09-26T08:21:07.392Z,971.04
2022-09-26T08:22:08.294Z,971.07
2022-09-26T08:23:07.381Z,971.06
2022-09-26T08:24:07.384Z,971.09
2022-09-26T08:25:07.343Z,971.04
2022-09-26T08:26:07.352Z,971.03
2022-09-26T08:27:07.324Z,971.01
2022-09-26T08:28:07.331Z,971.01
2022-09-26T08:29:07.305Z,971.01
2022-09-26T08:30:07.302Z,970.94
2022-09-26T08:31:07.356Z,970.94
2022-09-26T08:32:07.276Z,970.98
2022-09-26T08:33:07.343Z,970.99
2022-09-26T08:34:07.262Z,970.97
2022-09-26T08:35:07.236Z,970.97
2022-09-26T08:36:07.232Z,971.00
2022-09-26T08:37:07.282Z,970.87
2022-09-26T08:38:07.213Z,970.90
2022-09-26T08:39:07.263Z,970.92
2022-09-26T08:40:07.183Z,970.89
2022-09-26T08:41:07.427Z,970.85
2022-09-26T08:42:07.163Z,970.86
2022-09-26T08:43:07.180Z,970.84
2022-09-26T08:44:07.175Z,970.90
2022-09-26T08:45:07.105Z,970.84
2022-09-26T08:46:07.140Z,970.82
2022-09-26T08:47:07.104Z,970.93
2022-09-26T08:48:07.113Z,970.88
2022-09-26T08:49:07.066Z,970.90
2022-09-26T08:50:07.072Z,970.81
2022-09-26T08:51:07.068Z,970.81
2022-09-26T08:52:07.405Z,970.83
2022-09-26T08:53:07.127Z,970.86
2022-09-26T08:54:07.141Z,970.87
2022-09-26T08:55:07.725Z,970.87
2022-09-26T08:56:07.006Z,970.85
2022-09-26T08:57:06.970Z,970.84
2022-09-26T08:58:06.985Z,970.84
2022-09-26T08:59:06.944Z,970.82
2022-09-26T09:00:06.954Z,970.86
2022-09-26T09:01:06.923Z,970.81
2022-09-26T09:02:07.012Z,970.83
2022-09-26T09:03:06.986Z,970.81
2022-09-26T09:04:06.990Z,970.79
2022-09-26T09:05:06.880Z,970.76
2022-09-26T09:06:06.882Z,970.81
2022-09-26T09:07:06.852Z,970.76
2022-09-26T09:08:06.852Z,970.73
2022-09-26T09:09:06.822Z,970.75
2022-09-26T09:10:06.830Z,970.73
2022-09-26T09:11:06.804Z,970.72
2022-09-26T09:12:06.809Z,970.73
2022-09-26T09:13:06.783Z,970.77
2022-09-26T09:14:06.838Z,970.74
2022-09-26T09:15:25.866Z,970.73
2022-09-26T09:16:08.172Z,970.71
2022-09-26T09:17:06.734Z,970.74
2022-09-26T09:18:09.989Z,970.71
2022-09-26T09:19:07.712Z,970.71
2022-09-26T09:20:06.715Z,970.70
2022-09-26T09:21:06.687Z,970.73
2022-09-26T09:22:06.692Z,970.76
2022-09-26T09:23:06.663Z,970.71
2022-09-26T09:24:06.775Z,970.76
2022-09-26T09:25:06.643Z,970.70
2022-09-26T09:28:08.769Z,970.68
2022-09-26T09:29:10.376Z,970.69
2022-09-26T09:30:15.812Z,970.69
2022-09-26T09:31:07.624Z,970.65
2022-09-26T09:32:06.574Z,970.68
2022-09-26T09:33:06.573Z,970.68
2022-09-26T09:34:06.632Z,970.72
2022-09-26T09:35:06.530Z,970.73
2022-09-26T09:36:07.028Z,970.73
2022-09-26T09:37:06.503Z,970.74
2022-09-26T09:38:06.508Z,970.70
2022-09-26T09:39:06.484Z,970.66
2022-09-26T09:40:06.489Z,970.77
2022-09-26T09:41:06.513Z,970.77
2022-09-26T09:42:06.464Z,970.72
2022-09-26T09:43:06.424Z,970.72
2022-09-26T09:44:06.528Z,970.69
2022-09-26T09:45:06.403Z,970.68
2022-09-26T09:46:06.467Z,970.71
2022-09-26T09:47:06.401Z,970.66
2022-09-26T09:48:06.383Z,970.74
2022-09-26T09:49:06.395Z,970.73
2022-09-26T09:50:06.380Z,970.73
2022-09-26T09:51:06.339Z,970.69
2022-09-26T09:52:06.343Z,970.74
2022-09-26T09:53:06.366Z,970.71
2022-09-26T09:54:06.341Z,970.64
2022-09-26T09:55:06.303Z,970.66
2022-09-26T09:56:07.213Z,970.68
2022-09-26T09:57:06.296Z,970.68
2022-09-26T09:58:06.271Z,970.70
2022-09-26T09:59:06.242Z,970.67
2022-09-26T10:00:06.243Z,970.70
2022-09-26T10:01:06.213Z,970.63
2022-09-26T10:02:06.221Z,970.62
2022-09-26T10:03:06.292Z,970.60
2022-09-26T10:04:06.253Z,970.65
2022-09-26T10:05:06.185Z,970.62
2022-09-26T10:06:08.591Z,970.63
2022-09-26T10:07:07.151Z,970.58
2022-09-26T10:08:06.156Z,970.58
2022-09-26T10:09:35.260Z,970.61
2022-09-26T10:10:07.132Z,970.55
2022-09-26T10:11:06.112Z,970.56
2022-09-26T10:12:06.113Z,970.54
2022-09-26T10:13:06.084Z,970.51
2022-09-26T10:14:06.115Z,970.42
2022-09-26T10:15:06.072Z,970.49
2022-09-26T10:16:06.118Z,970.41
2022-09-26T10:17:06.767Z,970.38
2022-09-26T10:18:24.086Z,970.42
2022-09-26T10:19:07.042Z,970.36
2022-09-26T10:20:06.033Z,970.36
2022-09-26T10:21:06.013Z,970.37
2022-09-26T10:22:05.994Z,970.42
2022-09-26T10:23:05.994Z,970.36
2022-09-26T10:24:05.975Z,970.37
2022-09-26T10:25:05.983Z,970.32
2022-09-26T10:26:05.945Z,970.34
2022-09-26T10:27:05.943Z,970.31
2022-09-26T10:28:06.705Z,970.31
2022-09-26T10:29:13.154Z,970.36
2022-09-26T10:30:05.896Z,970.38
2022-09-26T10:31:05.940Z,970.36
2022-09-26T10:32:05.876Z,970.34
2022-09-26T10:33:05.884Z,970.31
2022-09-26T10:34:05.918Z,970.35
2022-09-26T10:35:05.856Z,970.31
2022-09-26T10:36:05.826Z,970.28
2022-09-26T10:37:05.835Z,970.28
2022-09-26T10:38:06.537Z,970.32
2022-09-26T10:39:06.707Z,970.30
2022-09-26T10:40:05.809Z,970.28
2022-09-26T10:41:05.883Z,970.27
2022-09-26T10:42:05.766Z,970.29
2022-09-26T10:43:05.768Z,970.30
2022-09-26T10:44:05.845Z,970.30
2022-09-26T10:45:05.798Z,970.19
2022-09-26T10:46:05.803Z,970.26
2022-09-26T10:47:05.716Z,970.25
2022-09-26T10:48:05.707Z,970.22
2022-09-26T10:49:05.696Z,970.20
2022-09-26T10:50:05.727Z,970.21
2022-09-26T10:51:05.679Z,970.20
2022-09-26T10:52:05.647Z,970.24
2022-09-26T10:53:05.654Z,970.22
2022-09-26T10:54:05.628Z,970.24
2022-09-26T10:55:05.634Z,970.20
2022-09-26T10:56:06.447Z,970.22
2022-09-26T10:57:05.636Z,970.19
2022-09-26T10:58:11.399Z,970.22
2022-09-26T10:59:06.657Z,970.21
2022-09-26T11:00:05.557Z,970.19
2022-09-26T11:01:05.578Z,970.19
2022-09-26T11:02:05.595Z,970.25
2022-09-26T11:03:05.545Z,970.19
2022-09-26T11:04:05.588Z,970.18
2022-09-26T11:05:05.517Z,970.15
2022-09-26T11:06:05.506Z,970.20
2022-09-26T11:07:05.505Z,970.14
2022-09-26T11:08:05.470Z,970.18
2022-09-26T11:09:05.474Z,970.07
2022-09-26T11:10:05.446Z,970.09
2022-09-26T11:11:05.445Z,970.14
2022-09-26T11:12:05.555Z,970.18
2022-09-26T11:13:05.446Z,970.16
2022-09-26T11:14:05.405Z,970.19
2022-09-26T11:15:05.406Z,970.18
2022-09-26T11:16:05.432Z,970.13
2022-09-26T11:17:05.413Z,970.14
2022-09-26T11:18:06.255Z,970.13
2022-09-26T11:19:06.213Z,970.06
2022-09-26T11:20:05.346Z,970.13
2022-09-26T11:21:14.339Z,970.18
2022-09-26T11:22:08.389Z,970.05
2022-09-26T11:23:05.337Z,970.03
2022-09-26T11:24:05.305Z,970.07
2022-09-26T11:25:05.295Z,970.04
2022-09-26T11:26:05.275Z,970.01
2022-09-26T11:27:05.288Z,970.05
2022-09-26T11:28:05.255Z,969.96
2022-09-26T11:29:05.247Z,969.98
2022-09-26T11:30:05.262Z,969.94
2022-09-26T11:31:05.411Z,969.87
2022-09-26T11:32:05.206Z,969.87
2022-09-26T11:33:05.206Z,969.85
2022-09-26T11:34:05.199Z,969.81
2022-09-26T11:35:05.193Z,969.81
2022-09-26T11:36:05.163Z,969.77
2022-09-26T11:37:05.176Z,969.74
2022-09-26T11:38:05.167Z,969.72
2022-09-26T11:39:06.066Z,969.77
2022-09-26T11:40:09.549Z,969.70
2022-09-26T11:41:05.149Z,969.74
2022-09-26T11:42:05.095Z,969.78
2022-09-26T11:43:05.095Z,969.71
2022-09-26T11:44:05.104Z,969.68
2022-09-26T11:45:05.156Z,969.66
2022-09-26T11:46:05.114Z,969.67
2022-09-26T11:47:05.050Z,969.63
2022-09-26T11:48:05.026Z,969.60
2022-09-26T11:49:05.036Z,969.57
2022-09-26T11:50:05.050Z,969.57
2022-09-26T11:51:05.067Z,969.60
2022-09-26T11:52:05.005Z,969.59
2022-09-26T11:53:04.986Z,969.61
2022-09-26T11:54:04.976Z,969.58
2022-09-26T11:55:04.987Z,969.61
2022-09-26T11:56:05.201Z,969.55
2022-09-26T11:57:04.947Z,969.62
2022-09-26T11:58:05.006Z,969.54
2022-09-26T11:59:05.645Z,969.52
2022-09-26T12:00:05.811Z,969.53
2022-09-26T12:01:04.910Z,969.50
2022-09-26T12:02:04.877Z,969.50
2022-09-26T12:03:05.011Z,969.48
2022-09-26T12:04:04.986Z,969.44
2022-09-26T12:05:04.865Z,969.43
2022-09-26T12:06:04.864Z,969.44
2022-09-26T12:07:04.836Z,969.46
2022-09-26T12:08:04.815Z,969.40
2022-09-26T12:09:04.820Z,969.40
2022-09-26T12:10:04.814Z,969.33
2022-09-26T12:11:04.796Z,969.32
2022-09-26T12:12:04.773Z,969.27
2022-09-26T12:13:04.777Z,969.20
2022-09-26T12:14:04.757Z,969.19
2022-09-26T12:15:04.758Z,969.15
2022-09-26T12:16:04.788Z,969.08
2022-09-26T12:17:04.724Z,969.09
2022-09-26T12:18:05.260Z,969.09
2022-09-26T12:19:05.524Z,969.00
2022-09-26T12:20:04.686Z,968.95
2022-09-26T12:21:04.676Z,968.96
2022-09-26T12:22:04.663Z,968.90
2022-09-26T12:23:04.875Z,968.87
2022-09-26T12:24:04.636Z,968.80
2022-09-26T12:25:04.667Z,968.73
2022-09-26T12:26:04.985Z,968.73
2022-09-26T12:27:04.616Z,968.64
2022-09-26T12:28:04.586Z,968.65
2022-09-26T12:29:04.588Z,968.65
2022-09-26T12:30:04.566Z,968.62
2022-09-26T12:31:04.590Z,968.59